Terminal Aerodrome Forecast
Issued by NWS San Angelo, TX

Home | Current Version | Previous Version | Text Only | Print | Product List | Glossary On
Versions: 1 2 3 4 5 6 7 8 9 10 11 12
783
FTUS44 KSJT 271140
TAFSJT
TAF
KSJT 271140Z 2712/2812 01006KT P6SM SKC
     FM272200 10006KT P6SM SKC
     FM280900 15008KT P6SM BKN015=

USA.gov is the U.S. government's official web portal to all federal, state and local government web resources and services.